sensor_id;sensor_type;location;lat;lon;timestamp;P1;durP1;ratioP1;P2;durP2;ratioP2
60612;SDS011;46443;59.792;17.626;2023-09-30T00:01:21;16.83;;;8.23;;
60612;SDS011;46443;59.792;17.626;2023-09-30T00:03:47;15.97;;;8.20;;
60612;SDS011;46443;59.792;17.626;2023-09-30T00:06:13;16.60;;;7.97;;
60612;SDS011;46443;59.792;17.626;2023-09-30T00:08:39;14.27;;;8.30;;
60612;SDS011;46443;59.792;17.626;2023-09-30T00:11:07;15.70;;;7.90;;
60612;SDS011;46443;59.792;17.626;2023-09-30T00:13:33;12.37;;;7.70;;
60612;SDS011;46443;59.792;17.626;2023-09-30T00:15:59;15.37;;;8.17;;
60612;SDS011;46443;59.792;17.626;2023-09-30T00:18:25;13.23;;;7.30;;
60612;SDS011;46443;59.792;17.626;2023-09-30T00:20:52;13.90;;;7.10;;
60612;SDS011;46443;59.792;17.626;2023-09-30T00:23:18;14.37;;;7.60;;
60612;SDS011;46443;59.792;17.626;2023-09-30T00:25:46;12.70;;;7.17;;
60612;SDS011;46443;59.792;17.626;2023-09-30T00:28:15;14.50;;;7.63;;
60612;SDS011;46443;59.792;17.626;2023-09-30T00:30:41;14.43;;;7.20;;
60612;SDS011;46443;59.792;17.626;2023-09-30T00:33:07;11.97;;;7.20;;
60612;SDS011;46443;59.792;17.626;2023-09-30T00:35:33;13.37;;;7.10;;
60612;SDS011;46443;59.792;17.626;2023-09-30T00:37:59;12.43;;;7.47;;
60612;SDS011;46443;59.792;17.626;2023-09-30T00:40:25;11.03;;;7.13;;
60612;SDS011;46443;59.792;17.626;2023-09-30T00:42:51;12.50;;;6.93;;
60612;SDS011;46443;59.792;17.626;2023-09-30T00:45:17;11.77;;;6.77;;
60612;SDS011;46443;59.792;17.626;2023-09-30T00:47:43;11.60;;;5.97;;
60612;SDS011;46443;59.792;17.626;2023-09-30T00:50:09;9.50;;;6.13;;
60612;SDS011;46443;59.792;17.626;2023-09-30T00:52:37;14.03;;;6.00;;
60612;SDS011;46443;59.792;17.626;2023-09-30T00:55:04;9.10;;;5.73;;
60612;SDS011;46443;59.792;17.626;2023-09-30T00:57:31;8.87;;;5.77;;
60612;SDS011;46443;59.792;17.626;2023-09-30T00:59:57;10.73;;;5.33;;
60612;SDS011;46443;59.792;17.626;2023-09-30T01:02:24;8.90;;;4.90;;
60612;SDS011;46443;59.792;17.626;2023-09-30T01:04:50;11.10;;;5.63;;
60612;SDS011;46443;59.792;17.626;2023-09-30T01:07:16;7.70;;;5.20;;
60612;SDS011;46443;59.792;17.626;2023-09-30T01:09:42;10.60;;;5.60;;
60612;SDS011;46443;59.792;17.626;2023-09-30T01:12:08;11.43;;;5.20;;
60612;SDS011;46443;59.792;17.626;2023-09-30T01:14:35;8.63;;;4.40;;
60612;SDS011;46443;59.792;17.626;2023-09-30T01:17:05;9.23;;;4.80;;
60612;SDS011;46443;59.792;17.626;2023-09-30T01:19:36;7.33;;;4.53;;
60612;SDS011;46443;59.792;17.626;2023-09-30T01:22:03;9.53;;;4.77;;
60612;SDS011;46443;59.792;17.626;2023-09-30T01:24:38;6.53;;;3.97;;
60612;SDS011;46443;59.792;17.626;2023-09-30T01:27:04;7.63;;;4.20;;
60612;SDS011;46443;59.792;17.626;2023-09-30T01:29:30;8.60;;;4.30;;
60612;SDS011;46443;59.792;17.626;2023-09-30T01:31:57;5.60;;;3.70;;
60612;SDS011;46443;59.792;17.626;2023-09-30T01:34:23;7.63;;;4.20;;
60612;SDS011;46443;59.792;17.626;2023-09-30T01:36:49;5.73;;;3.80;;
60612;SDS011;46443;59.792;17.626;2023-09-30T01:39:16;6.43;;;4.17;;
60612;SDS011;46443;59.792;17.626;2023-09-30T01:41:42;6.30;;;3.37;;
60612;SDS011;46443;59.792;17.626;2023-09-30T01:44:08;6.17;;;3.33;;
60612;SDS011;46443;59.792;17.626;2023-09-30T01:46:34;5.30;;;3.13;;
60612;SDS011;46443;59.792;17.626;2023-09-30T01:49:01;8.20;;;4.00;;
60612;SDS011;46443;59.792;17.626;2023-09-30T01:51:28;6.27;;;3.23;;
60612;SDS011;46443;59.792;17.626;2023-09-30T01:53:55;6.80;;;3.33;;
60612;SDS011;46443;59.792;17.626;2023-09-30T01:56:21;7.63;;;4.03;;
60612;SDS011;46443;59.792;17.626;2023-09-30T01:58:47;7.53;;;3.53;;
60612;SDS011;46443;59.792;17.626;2023-09-30T02:01:13;5.43;;;3.33;;
60612;SDS011;46443;59.792;17.626;2023-09-30T02:03:40;5.90;;;3.47;;
60612;SDS011;46443;59.792;17.626;2023-09-30T02:06:07;7.33;;;3.60;;
60612;SDS011;46443;59.792;17.626;2023-09-30T02:08:33;7.33;;;3.60;;
60612;SDS011;46443;59.792;17.626;2023-09-30T02:11:02;6.13;;;3.20;;
60612;SDS011;46443;59.792;17.626;2023-09-30T02:13:33;5.17;;;3.03;;
60612;SDS011;46443;59.792;17.626;2023-09-30T02:16:02;5.30;;;3.20;;
60612;SDS011;46443;59.792;17.626;2023-09-30T02:18:28;4.93;;;3.00;;
60612;SDS011;46443;59.792;17.626;2023-09-30T02:20:57;5.03;;;3.07;;
60612;SDS011;46443;59.792;17.626;2023-09-30T02:23:24;5.47;;;3.47;;
60612;SDS011;46443;59.792;17.626;2023-09-30T02:25:51;6.80;;;3.33;;
60612;SDS011;46443;59.792;17.626;2023-09-30T02:28:17;6.07;;;3.10;;
60612;SDS011;46443;59.792;17.626;2023-09-30T02:30:43;5.03;;;2.97;;
60612;SDS011;46443;59.792;17.626;2023-09-30T02:33:09;7.07;;;2.97;;
60612;SDS011;46443;59.792;17.626;2023-09-30T02:35:35;6.87;;;3.40;;
60612;SDS011;46443;59.792;17.626;2023-09-30T02:38:04;4.30;;;2.67;;
60612;SDS011;46443;59.792;17.626;2023-09-30T02:40:31;7.67;;;3.20;;
60612;SDS011;46443;59.792;17.626;2023-09-30T02:42:58;5.80;;;2.90;;
60612;SDS011;46443;59.792;17.626;2023-09-30T02:45:24;5.10;;;2.80;;
60612;SDS011;46443;59.792;17.626;2023-09-30T02:47:50;5.70;;;3.60;;
60612;SDS011;46443;59.792;17.626;2023-09-30T02:50:16;6.73;;;2.70;;
60612;SDS011;46443;59.792;17.626;2023-09-30T02:52:43;4.53;;;2.80;;
60612;SDS011;46443;59.792;17.626;2023-09-30T02:55:12;5.83;;;2.73;;
60612;SDS011;46443;59.792;17.626;2023-09-30T02:57:38;6.60;;;3.10;;
60612;SDS011;46443;59.792;17.626;2023-09-30T03:00:05;6.00;;;2.73;;
60612;SDS011;46443;59.792;17.626;2023-09-30T03:02:57;6.57;;;3.00;;
60612;SDS011;46443;59.792;17.626;2023-09-30T03:05:23;5.00;;;2.83;;
60612;SDS011;46443;59.792;17.626;2023-09-30T03:07:50;5.70;;;3.20;;
60612;SDS011;46443;59.792;17.626;2023-09-30T03:10:16;5.27;;;2.67;;
60612;SDS011;46443;59.792;17.626;2023-09-30T03:12:48;6.80;;;3.00;;
60612;SDS011;46443;59.792;17.626;2023-09-30T03:15:14;6.82;;;2.67;;
60612;SDS011;46443;59.792;17.626;2023-09-30T03:17:41;6.70;;;2.90;;
60612;SDS011;46443;59.792;17.626;2023-09-30T03:20:08;6.43;;;3.17;;
60612;SDS011;46443;59.792;17.626;2023-09-30T03:22:43;7.33;;;3.27;;
60612;SDS011;46443;59.792;17.626;2023-09-30T03:25:12;7.73;;;3.07;;
60612;SDS011;46443;59.792;17.626;2023-09-30T03:27:40;7.03;;;2.70;;
60612;SDS011;46443;59.792;17.626;2023-09-30T03:30:06;7.47;;;3.00;;
60612;SDS011;46443;59.792;17.626;2023-09-30T03:32:33;6.23;;;2.70;;
60612;SDS011;46443;59.792;17.626;2023-09-30T03:35:04;6.00;;;2.83;;
60612;SDS011;46443;59.792;17.626;2023-09-30T03:37:31;7.70;;;3.10;;
60612;SDS011;46443;59.792;17.626;2023-09-30T03:39:57;7.53;;;3.17;;
60612;SDS011;46443;59.792;17.626;2023-09-30T03:42:24;8.70;;;3.00;;
60612;SDS011;46443;59.792;17.626;2023-09-30T03:44:50;5.33;;;2.60;;
60612;SDS011;46443;59.792;17.626;2023-09-30T03:47:16;6.13;;;3.17;;
60612;SDS011;46443;59.792;17.626;2023-09-30T03:49:42;6.13;;;2.60;;
60612;SDS011;46443;59.792;17.626;2023-09-30T03:52:09;6.77;;;3.23;;
60612;SDS011;46443;59.792;17.626;2023-09-30T03:54:36;6.70;;;3.03;;
60612;SDS011;46443;59.792;17.626;2023-09-30T03:57:02;5.93;;;2.70;;
60612;SDS011;46443;59.792;17.626;2023-09-30T03:59:29;8.20;;;2.83;;
60612;SDS011;46443;59.792;17.626;2023-09-30T04:01:55;8.13;;;3.00;;
60612;SDS011;46443;59.792;17.626;2023-09-30T04:04:25;7.67;;;3.13;;
60612;SDS011;46443;59.792;17.626;2023-09-30T04:06:51;6.23;;;3.10;;
60612;SDS011;46443;59.792;17.626;2023-09-30T04:09:17;5.07;;;2.70;;
60612;SDS011;46443;59.792;17.626;2023-09-30T04:11:44;8.47;;;3.20;;
60612;SDS011;46443;59.792;17.626;2023-09-30T04:14:11;7.40;;;2.90;;
60612;SDS011;46443;59.792;17.626;2023-09-30T04:16:37;8.20;;;3.87;;
60612;SDS011;46443;59.792;17.626;2023-09-30T04:19:03;9.47;;;3.33;;
60612;SDS011;46443;59.792;17.626;2023-09-30T04:21:29;6.53;;;3.40;;
60612;SDS011;46443;59.792;17.626;2023-09-30T04:23:59;10.65;;;4.22;;
60612;SDS011;46443;59.792;17.626;2023-09-30T04:26:25;6.03;;;3.23;;
60612;SDS011;46443;59.792;17.626;2023-09-30T04:28:51;6.23;;;3.07;;
60612;SDS011;46443;59.792;17.626;2023-09-30T04:31:19;5.97;;;2.90;;
60612;SDS011;46443;59.792;17.626;2023-09-30T04:33:46;8.43;;;3.93;;
60612;SDS011;46443;59.792;17.626;2023-09-30T04:36:12;11.90;;;3.73;;
60612;SDS011;46443;59.792;17.626;2023-09-30T04:38:38;9.83;;;3.97;;
60612;SDS011;46443;59.792;17.626;2023-09-30T04:41:05;8.27;;;3.67;;
60612;SDS011;46443;59.792;17.626;2023-09-30T04:43:34;8.68;;;3.60;;
60612;SDS011;46443;59.792;17.626;2023-09-30T04:46:03;11.05;;;4.15;;
60612;SDS011;46443;59.792;17.626;2023-09-30T04:48:29;14.40;;;3.93;;
60612;SDS011;46443;59.792;17.626;2023-09-30T04:50:57;6.87;;;3.17;;
60612;SDS011;46443;59.792;17.626;2023-09-30T04:53:23;8.83;;;3.90;;
60612;SDS011;46443;59.792;17.626;2023-09-30T04:55:49;10.30;;;3.73;;
60612;SDS011;46443;59.792;17.626;2023-09-30T04:58:15;12.93;;;3.70;;
60612;SDS011;46443;59.792;17.626;2023-09-30T05:00:41;9.50;;;4.20;;
60612;SDS011;46443;59.792;17.626;2023-09-30T05:03:08;10.80;;;4.27;;
60612;SDS011;46443;59.792;17.626;2023-09-30T05:05:34;14.20;;;4.27;;
60612;SDS011;46443;59.792;17.626;2023-09-30T05:08:00;8.27;;;3.63;;
60612;SDS011;46443;59.792;17.626;2023-09-30T05:10:26;9.37;;;4.10;;
60612;SDS011;46443;59.792;17.626;2023-09-30T05:12:53;11.57;;;4.33;;
60612;SDS011;46443;59.792;17.626;2023-09-30T05:15:20;8.30;;;4.00;;
60612;SDS011;46443;59.792;17.626;2023-09-30T05:17:46;14.07;;;4.03;;
60612;SDS011;46443;59.792;17.626;2023-09-30T05:20:14;11.07;;;4.60;;
60612;SDS011;46443;59.792;17.626;2023-09-30T05:22:42;11.27;;;3.70;;
60612;SDS011;46443;59.792;17.626;2023-09-30T05:25:14;11.48;;;4.00;;
60612;SDS011;46443;59.792;17.626;2023-09-30T05:27:45;13.67;;;3.90;;
60612;SDS011;46443;59.792;17.626;2023-09-30T05:30:13;11.17;;;3.97;;
60612;SDS011;46443;59.792;17.626;2023-09-30T05:32:40;13.97;;;3.87;;
60612;SDS011;46443;59.792;17.626;2023-09-30T05:35:07;11.07;;;3.50;;
60612;SDS011;46443;59.792;17.626;2023-09-30T05:37:42;12.70;;;3.30;;
60612;SDS011;46443;59.792;17.626;2023-09-30T05:40:08;10.50;;;3.77;;
60612;SDS011;46443;59.792;17.626;2023-09-30T05:42:47;12.00;;;3.43;;
60612;SDS011;46443;59.792;17.626;2023-09-30T05:45:15;10.73;;;4.03;;
60612;SDS011;46443;59.792;17.626;2023-09-30T05:47:41;8.83;;;3.27;;
60612;SDS011;46443;59.792;17.626;2023-09-30T05:50:07;10.47;;;3.70;;
60612;SDS011;46443;59.792;17.626;2023-09-30T05:52:34;11.07;;;3.47;;
60612;SDS011;46443;59.792;17.626;2023-09-30T05:55:01;8.70;;;3.70;;
60612;SDS011;46443;59.792;17.626;2023-09-30T05:57:27;12.50;;;3.90;;
60612;SDS011;46443;59.792;17.626;2023-09-30T05:59:54;8.97;;;3.00;;
60612;SDS011;46443;59.792;17.626;2023-09-30T06:02:20;9.50;;;3.27;;
60612;SDS011;46443;59.792;17.626;2023-09-30T06:04:46;11.67;;;3.57;;
60612;SDS011;46443;59.792;17.626;2023-09-30T06:07:12;10.43;;;3.40;;
60612;SDS011;46443;59.792;17.626;2023-09-30T06:09:38;8.47;;;3.03;;
60612;SDS011;46443;59.792;17.626;2023-09-30T06:12:04;9.30;;;2.90;;
60612;SDS011;46443;59.792;17.626;2023-09-30T06:14:31;10.10;;;2.93;;
60612;SDS011;46443;59.792;17.626;2023-09-30T06:16:57;9.73;;;3.10;;
60612;SDS011;46443;59.792;17.626;2023-09-30T06:19:24;8.43;;;3.07;;
60612;SDS011;46443;59.792;17.626;2023-09-30T06:21:51;9.37;;;3.70;;
60612;SDS011;46443;59.792;17.626;2023-09-30T06:24:17;11.90;;;3.17;;
60612;SDS011;46443;59.792;17.626;2023-09-30T06:26:45;6.80;;;2.53;;
60612;SDS011;46443;59.792;17.626;2023-09-30T06:29:13;9.60;;;2.93;;
60612;SDS011;46443;59.792;17.626;2023-09-30T06:31:40;8.03;;;3.37;;
60612;SDS011;46443;59.792;17.626;2023-09-30T06:34:06;7.27;;;3.00;;
60612;SDS011;46443;59.792;17.626;2023-09-30T06:36:32;7.47;;;2.53;;
60612;SDS011;46443;59.792;17.626;2023-09-30T06:38:58;11.23;;;3.17;;
60612;SDS011;46443;59.792;17.626;2023-09-30T06:41:24;9.13;;;2.93;;
60612;SDS011;46443;59.792;17.626;2023-09-30T06:43:50;8.97;;;3.03;;
60612;SDS011;46443;59.792;17.626;2023-09-30T06:46:17;6.83;;;2.87;;
60612;SDS011;46443;59.792;17.626;2023-09-30T06:48:43;9.37;;;3.50;;
60612;SDS011;46443;59.792;17.626;2023-09-30T06:51:13;12.63;;;3.40;;
60612;SDS011;46443;59.792;17.626;2023-09-30T06:53:40;7.87;;;3.00;;
60612;SDS011;46443;59.792;17.626;2023-09-30T06:56:06;9.60;;;3.47;;
60612;SDS011;46443;59.792;17.626;2023-09-30T06:58:32;7.67;;;3.00;;
60612;SDS011;46443;59.792;17.626;2023-09-30T07:00:58;11.47;;;3.10;;
60612;SDS011;46443;59.792;17.626;2023-09-30T07:03:24;8.37;;;2.83;;
60612;SDS011;46443;59.792;17.626;2023-09-30T07:05:50;11.17;;;2.83;;
60612;SDS011;46443;59.792;17.626;2023-09-30T07:08:17;7.40;;;2.60;;
60612;SDS011;46443;59.792;17.626;2023-09-30T07:10:44;10.03;;;2.60;;
60612;SDS011;46443;59.792;17.626;2023-09-30T07:13:17;8.87;;;3.40;;
60612;SDS011;46443;59.792;17.626;2023-09-30T07:15:43;8.47;;;2.70;;
60612;SDS011;46443;59.792;17.626;2023-09-30T07:18:09;7.90;;;2.57;;
60612;SDS011;46443;59.792;17.626;2023-09-30T07:20:37;7.80;;;2.83;;
60612;SDS011;46443;59.792;17.626;2023-09-30T07:23:03;9.23;;;3.13;;
60612;SDS011;46443;59.792;17.626;2023-09-30T07:25:30;9.80;;;2.63;;
60612;SDS011;46443;59.792;17.626;2023-09-30T07:27:57;12.10;;;3.23;;
60612;SDS011;46443;59.792;17.626;2023-09-30T07:30:23;9.80;;;2.47;;
60612;SDS011;46443;59.792;17.626;2023-09-30T07:32:49;11.43;;;3.50;;
60612;SDS011;46443;59.792;17.626;2023-09-30T07:35:15;9.57;;;2.60;;
60612;SDS011;46443;59.792;17.626;2023-09-30T07:37:42;7.20;;;2.60;;
60612;SDS011;46443;59.792;17.626;2023-09-30T07:40:08;8.60;;;2.80;;
60612;SDS011;46443;59.792;17.626;2023-09-30T07:42:35;8.60;;;2.60;;
60612;SDS011;46443;59.792;17.626;2023-09-30T07:45:01;10.73;;;2.47;;
60612;SDS011;46443;59.792;17.626;2023-09-30T07:47:29;11.33;;;3.07;;
60612;SDS011;46443;59.792;17.626;2023-09-30T07:49:56;7.63;;;2.83;;
60612;SDS011;46443;59.792;17.626;2023-09-30T07:52:22;5.83;;;2.33;;
60612;SDS011;46443;59.792;17.626;2023-09-30T07:54:48;7.47;;;2.60;;
60612;SDS011;46443;59.792;17.626;2023-09-30T07:57:14;9.57;;;2.73;;
60612;SDS011;46443;59.792;17.626;2023-09-30T07:59:40;10.10;;;2.70;;
60612;SDS011;46443;59.792;17.626;2023-09-30T08:02:06;5.17;;;2.13;;
60612;SDS011;46443;59.792;17.626;2023-09-30T08:04:33;13.17;;;2.60;;
60612;SDS011;46443;59.792;17.626;2023-09-30T08:06:59;9.27;;;2.53;;
60612;SDS011;46443;59.792;17.626;2023-09-30T08:09:25;9.00;;;2.90;;
60612;SDS011;46443;59.792;17.626;2023-09-30T08:11:54;8.13;;;2.73;;
60612;SDS011;46443;59.792;17.626;2023-09-30T08:14:21;7.22;;;2.85;;
60612;SDS011;46443;59.792;17.626;2023-09-30T08:16:47;10.33;;;2.63;;
60612;SDS011;46443;59.792;17.626;2023-09-30T08:19:14;8.97;;;2.17;;
60612;SDS011;46443;59.792;17.626;2023-09-30T08:21:40;7.30;;;2.33;;
60612;SDS011;46443;59.792;17.626;2023-09-30T08:24:06;7.53;;;2.50;;
60612;SDS011;46443;59.792;17.626;2023-09-30T08:26:33;10.20;;;2.80;;
60612;SDS011;46443;59.792;17.626;2023-09-30T08:29:00;9.17;;;3.00;;
60612;SDS011;46443;59.792;17.626;2023-09-30T08:31:27;8.53;;;2.37;;
60612;SDS011;46443;59.792;17.626;2023-09-30T08:33:54;8.83;;;2.50;;
60612;SDS011;46443;59.792;17.626;2023-09-30T08:36:20;7.70;;;2.33;;
60612;SDS011;46443;59.792;17.626;2023-09-30T08:38:46;8.53;;;2.50;;
60612;SDS011;46443;59.792;17.626;2023-09-30T08:41:15;8.77;;;2.93;;
60612;SDS011;46443;59.792;17.626;2023-09-30T08:43:48;9.90;;;2.57;;
60612;SDS011;46443;59.792;17.626;2023-09-30T08:46:14;8.63;;;2.40;;
60612;SDS011;46443;59.792;17.626;2023-09-30T08:48:41;6.80;;;2.27;;
60612;SDS011;46443;59.792;17.626;2023-09-30T08:51:08;9.03;;;2.83;;
60612;SDS011;46443;59.792;17.626;2023-09-30T08:53:34;6.03;;;2.30;;
60612;SDS011;46443;59.792;17.626;2023-09-30T08:56:00;5.97;;;2.47;;
60612;SDS011;46443;59.792;17.626;2023-09-30T08:58:29;10.20;;;3.00;;
60612;SDS011;46443;59.792;17.626;2023-09-30T09:00:55;8.30;;;3.07;;
60612;SDS011;46443;59.792;17.626;2023-09-30T09:03:21;6.88;;;2.58;;
60612;SDS011;46443;59.792;17.626;2023-09-30T09:05:54;6.95;;;2.10;;
60612;SDS011;46443;59.792;17.626;2023-09-30T09:08:21;6.55;;;2.40;;
60612;SDS011;46443;59.792;17.626;2023-09-30T09:10:58;7.05;;;2.30;;
60612;SDS011;46443;59.792;17.626;2023-09-30T09:13:25;6.30;;;2.33;;
60612;SDS011;46443;59.792;17.626;2023-09-30T09:16:07;4.90;;;2.10;;
60612;SDS011;46443;59.792;17.626;2023-09-30T09:18:33;6.88;;;2.30;;
60612;SDS011;46443;59.792;17.626;2023-09-30T09:21:34;9.18;;;2.60;;
60612;SDS011;46443;59.792;17.626;2023-09-30T09:23:53;8.20;;;2.53;;
60612;SDS011;46443;59.792;17.626;2023-09-30T09:28:49;9.63;;;2.30;;
60612;SDS011;46443;59.792;17.626;2023-09-30T09:31:25;9.98;;;2.58;;
60612;SDS011;46443;59.792;17.626;2023-09-30T09:33:51;9.05;;;2.50;;
60612;SDS011;46443;59.792;17.626;2023-09-30T09:36:18;8.65;;;2.22;;
60612;SDS011;46443;59.792;17.626;2023-09-30T09:38:54;7.63;;;2.58;;
60612;SDS011;46443;59.792;17.626;2023-09-30T09:41:20;6.85;;;2.25;;
60612;SDS011;46443;59.792;17.626;2023-09-30T09:43:49;8.57;;;2.53;;
60612;SDS011;46443;59.792;17.626;2023-09-30T09:46:18;9.38;;;2.67;;
60612;SDS011;46443;59.792;17.626;2023-09-30T09:48:45;9.57;;;2.13;;
60612;SDS011;46443;59.792;17.626;2023-09-30T09:53:41;7.68;;;2.95;;
60612;SDS011;46443;59.792;17.626;2023-09-30T09:56:08;7.28;;;2.40;;
60612;SDS011;46443;59.792;17.626;2023-09-30T09:58:35;7.03;;;2.55;;
60612;SDS011;46443;59.792;17.626;2023-09-30T10:01:06;8.50;;;2.50;;
60612;SDS011;46443;59.792;17.626;2023-09-30T10:03:34;7.18;;;2.17;;
60612;SDS011;46443;59.792;17.626;2023-09-30T10:06:01;5.45;;;2.10;;
60612;SDS011;46443;59.792;17.626;2023-09-30T10:08:32;9.02;;;2.58;;
60612;SDS011;46443;59.792;17.626;2023-09-30T10:10:59;7.90;;;2.33;;
60612;SDS011;46443;59.792;17.626;2023-09-30T10:14:11;9.98;;;2.50;;
60612;SDS011;46443;59.792;17.626;2023-09-30T10:16:46;9.32;;;2.67;;
60612;SDS011;46443;59.792;17.626;2023-09-30T10:19:08;8.07;;;2.47;;
60612;SDS011;46443;59.792;17.626;2023-09-30T10:21:34;6.33;;;2.20;;
60612;SDS011;46443;59.792;17.626;2023-09-30T10:29:59;6.28;;;2.35;;
60612;SDS011;46443;59.792;17.626;2023-09-30T10:35:11;5.28;;;1.75;;
60612;SDS011;46443;59.792;17.626;2023-09-30T10:37:37;7.63;;;2.33;;
60612;SDS011;46443;59.792;17.626;2023-09-30T10:40:03;7.07;;;2.30;;
60612;SDS011;46443;59.792;17.626;2023-09-30T10:47:55;6.38;;;1.92;;
60612;SDS011;46443;59.792;17.626;2023-09-30T10:50:55;5.13;;;1.85;;
60612;SDS011;46443;59.792;17.626;2023-09-30T10:53:13;7.72;;;2.45;;
60612;SDS011;46443;59.792;17.626;2023-09-30T10:55:39;9.20;;;2.50;;
60612;SDS011;46443;59.792;17.626;2023-09-30T10:58:07;8.25;;;2.15;;
60612;SDS011;46443;59.792;17.626;2023-09-30T11:00:34;6.97;;;1.98;;
60612;SDS011;46443;59.792;17.626;2023-09-30T11:03:00;6.40;;;2.10;;
60612;SDS011;46443;59.792;17.626;2023-09-30T11:05:27;6.55;;;2.10;;
60612;SDS011;46443;59.792;17.626;2023-09-30T11:07:53;7.85;;;2.30;;
60612;SDS011;46443;59.792;17.626;2023-09-30T11:10:23;7.80;;;2.20;;
60612;SDS011;46443;59.792;17.626;2023-09-30T11:12:53;6.93;;;2.10;;
60612;SDS011;46443;59.792;17.626;2023-09-30T11:15:19;7.40;;;2.10;;
60612;SDS011;46443;59.792;17.626;2023-09-30T11:17:46;6.13;;;2.38;;
60612;SDS011;46443;59.792;17.626;2023-09-30T11:20:12;7.03;;;1.90;;
60612;SDS011;46443;59.792;17.626;2023-09-30T11:22:38;5.63;;;2.17;;
60612;SDS011;46443;59.792;17.626;2023-09-30T11:25:05;4.88;;;1.90;;
60612;SDS011;46443;59.792;17.626;2023-09-30T11:27:31;5.43;;;1.77;;
60612;SDS011;46443;59.792;17.626;2023-09-30T11:29:58;7.28;;;2.05;;
60612;SDS011;46443;59.792;17.626;2023-09-30T11:32:25;6.75;;;2.00;;
60612;SDS011;46443;59.792;17.626;2023-09-30T11:34:54;7.20;;;1.80;;
60612;SDS011;46443;59.792;17.626;2023-09-30T11:37:20;6.57;;;2.20;;
60612;SDS011;46443;59.792;17.626;2023-09-30T11:39:47;6.25;;;1.90;;
60612;SDS011;46443;59.792;17.626;2023-09-30T11:42:14;4.40;;;1.60;;
60612;SDS011;46443;59.792;17.626;2023-09-30T11:44:45;4.97;;;1.90;;
60612;SDS011;46443;59.792;17.626;2023-09-30T11:47:12;5.47;;;1.65;;
60612;SDS011;46443;59.792;17.626;2023-09-30T11:49:40;5.50;;;1.85;;
60612;SDS011;46443;59.792;17.626;2023-09-30T11:57:06;5.60;;;2.13;;
60612;SDS011;46443;59.792;17.626;2023-09-30T11:59:36;4.65;;;1.67;;
60612;SDS011;46443;59.792;17.626;2023-09-30T12:02:02;4.55;;;1.73;;
60612;SDS011;46443;59.792;17.626;2023-09-30T12:04:30;6.38;;;2.20;;
60612;SDS011;46443;59.792;17.626;2023-09-30T12:06:56;5.07;;;1.45;;
60612;SDS011;46443;59.792;17.626;2023-09-30T12:09:23;4.70;;;2.00;;
60612;SDS011;46443;59.792;17.626;2023-09-30T12:11:52;3.13;;;1.75;;
60612;SDS011;46443;59.792;17.626;2023-09-30T12:14:18;7.60;;;2.03;;
60612;SDS011;46443;59.792;17.626;2023-09-30T12:16:45;3.63;;;1.48;;
60612;SDS011;46443;59.792;17.626;2023-09-30T12:19:12;4.38;;;1.70;;
60612;SDS011;46443;59.792;17.626;2023-09-30T12:21:39;4.25;;;1.63;;
60612;SDS011;46443;59.792;17.626;2023-09-30T12:24:05;5.05;;;1.80;;
60612;SDS011;46443;59.792;17.626;2023-09-30T12:26:34;4.00;;;1.70;;
60612;SDS011;46443;59.792;17.626;2023-09-30T12:29:00;5.38;;;1.70;;
60612;SDS011;46443;59.792;17.626;2023-09-30T12:31:26;3.28;;;1.25;;
60612;SDS011;46443;59.792;17.626;2023-09-30T12:33:52;5.57;;;1.50;;
60612;SDS011;46443;59.792;17.626;2023-09-30T12:36:18;5.28;;;1.60;;
60612;SDS011;46443;59.792;17.626;2023-09-30T12:38:45;5.50;;;1.70;;
60612;SDS011;46443;59.792;17.626;2023-09-30T12:41:11;2.90;;;1.30;;
60612;SDS011;46443;59.792;17.626;2023-09-30T12:43:37;3.83;;;1.42;;
60612;SDS011;46443;59.792;17.626;2023-09-30T12:46:03;5.95;;;1.73;;
60612;SDS011;46443;59.792;17.626;2023-09-30T12:48:32;6.90;;;2.03;;
60612;SDS011;46443;59.792;17.626;2023-09-30T12:50:59;4.97;;;1.73;;
60612;SDS011;46443;59.792;17.626;2023-09-30T12:53:25;5.28;;;1.65;;
60612;SDS011;46443;59.792;17.626;2023-09-30T12:55:51;6.03;;;1.55;;
60612;SDS011;46443;59.792;17.626;2023-09-30T12:58:17;2.78;;;1.40;;
60612;SDS011;46443;59.792;17.626;2023-09-30T13:00:43;6.28;;;1.60;;
60612;SDS011;46443;59.792;17.626;2023-09-30T13:03:09;5.55;;;1.80;;
60612;SDS011;46443;59.792;17.626;2023-09-30T13:05:37;3.55;;;1.58;;
60612;SDS011;46443;59.792;17.626;2023-09-30T13:08:03;3.70;;;1.40;;
60612;SDS011;46443;59.792;17.626;2023-09-30T13:10:30;4.72;;;1.60;;
60612;SDS011;46443;59.792;17.626;2023-09-30T13:12:56;3.22;;;1.42;;
60612;SDS011;46443;59.792;17.626;2023-09-30T13:15:22;4.00;;;1.73;;
60612;SDS011;46443;59.792;17.626;2023-09-30T13:17:51;6.07;;;1.65;;
60612;SDS011;46443;59.792;17.626;2023-09-30T13:20:17;4.50;;;1.42;;
60612;SDS011;46443;59.792;17.626;2023-09-30T13:22:43;5.75;;;1.60;;
60612;SDS011;46443;59.792;17.626;2023-09-30T13:25:10;5.55;;;1.60;;
60612;SDS011;46443;59.792;17.626;2023-09-30T13:27:40;5.53;;;1.63;;
60612;SDS011;46443;59.792;17.626;2023-09-30T13:30:07;3.92;;;1.60;;
60612;SDS011;46443;59.792;17.626;2023-09-30T13:32:34;4.38;;;1.40;;
60612;SDS011;46443;59.792;17.626;2023-09-30T13:35:03;5.85;;;1.80;;
60612;SDS011;46443;59.792;17.626;2023-09-30T13:37:30;4.57;;;1.42;;
60612;SDS011;46443;59.792;17.626;2023-09-30T13:39:59;3.67;;;1.45;;
60612;SDS011;46443;59.792;17.626;2023-09-30T13:42:25;3.13;;;1.42;;
60612;SDS011;46443;59.792;17.626;2023-09-30T13:44:51;4.15;;;1.65;;
60612;SDS011;46443;59.792;17.626;2023-09-30T13:47:17;3.05;;;1.38;;
60612;SDS011;46443;59.792;17.626;2023-09-30T13:49:43;4.57;;;1.50;;
60612;SDS011;46443;59.792;17.626;2023-09-30T13:52:11;2.90;;;1.45;;
60612;SDS011;46443;59.792;17.626;2023-09-30T13:54:37;2.95;;;1.20;;
60612;SDS011;46443;59.792;17.626;2023-09-30T13:57:03;4.82;;;1.60;;
60612;SDS011;46443;59.792;17.626;2023-09-30T13:59:33;3.60;;;1.50;;
60612;SDS011;46443;59.792;17.626;2023-09-30T14:01:59;3.03;;;1.63;;
60612;SDS011;46443;59.792;17.626;2023-09-30T14:04:25;4.68;;;1.60;;
60612;SDS011;46443;59.792;17.626;2023-09-30T14:06:51;5.00;;;1.70;;
60612;SDS011;46443;59.792;17.626;2023-09-30T14:09:18;3.70;;;1.30;;
60612;SDS011;46443;59.792;17.626;2023-09-30T14:11:44;4.68;;;1.70;;
60612;SDS011;46443;59.792;17.626;2023-09-30T14:14:10;6.22;;;1.60;;
60612;SDS011;46443;59.792;17.626;2023-09-30T14:16:36;5.55;;;1.65;;
60612;SDS011;46443;59.792;17.626;2023-09-30T14:19:02;5.97;;;1.55;;
60612;SDS011;46443;59.792;17.626;2023-09-30T14:21:28;2.60;;;1.25;;
60612;SDS011;46443;59.792;17.626;2023-09-30T14:23:57;3.40;;;1.38;;
60612;SDS011;46443;59.792;17.626;2023-09-30T14:26:23;3.85;;;1.10;;
60612;SDS011;46443;59.792;17.626;2023-09-30T14:28:49;3.35;;;1.35;;
60612;SDS011;46443;59.792;17.626;2023-09-30T14:31:16;4.57;;;1.50;;
60612;SDS011;46443;59.792;17.626;2023-09-30T14:33:42;4.53;;;1.50;;
60612;SDS011;46443;59.792;17.626;2023-09-30T14:36:08;2.20;;;1.27;;
60612;SDS011;46443;59.792;17.626;2023-09-30T14:38:34;3.03;;;1.50;;
60612;SDS011;46443;59.792;17.626;2023-09-30T14:41:05;3.28;;;1.40;;
60612;SDS011;46443;59.792;17.626;2023-09-30T14:43:32;2.70;;;1.02;;
60612;SDS011;46443;59.792;17.626;2023-09-30T14:46:00;3.13;;;1.13;;
60612;SDS011;46443;59.792;17.626;2023-09-30T14:48:27;2.67;;;1.23;;
60612;SDS011;46443;59.792;17.626;2023-09-30T14:50:53;4.45;;;1.40;;
60612;SDS011;46443;59.792;17.626;2023-09-30T14:53:20;2.83;;;1.35;;
60612;SDS011;46443;59.792;17.626;2023-09-30T14:55:46;2.83;;;1.23;;